createdAt,value
2023-03-11T00:00:26.311Z,99541.19
2023-03-11T00:02:55.205Z,99545.53
2023-03-11T00:05:25.317Z,99543.78
2023-03-11T00:07:52.056Z,99548.06
2023-03-11T00:10:21.709Z,99548.91
2023-03-11T00:12:51.530Z,99535.34
2023-03-11T00:15:18.243Z,99528.56
2023-03-11T00:17:44.969Z,99533.69
2023-03-11T00:20:30.926Z,99529.44
2023-03-11T00:22:58.144Z,99534.56
2023-03-11T00:25:28.319Z,99531.16
2023-03-11T00:27:55.438Z,99547.25
2023-03-11T00:30:23.867Z,99539.56
2023-03-11T00:32:52.969Z,99543.78
2023-03-11T00:35:23.647Z,99542.88
2023-03-11T00:37:54.051Z,99543.69
2023-03-11T00:40:22.424Z,99535.06
2023-03-11T00:42:48.997Z,99533.28
2023-03-11T00:45:16.021Z,99538.25
2023-03-11T00:47:42.884Z,99536.53
2023-03-11T00:50:12.331Z,99540.75
2023-03-11T00:52:38.965Z,99523.75
2023-03-11T00:55:06.600Z,99532.22
2023-03-11T00:57:33.159Z,99538.19
2023-03-11T00:59:59.876Z,99536.41
2023-03-11T01:02:26.554Z,99530.50
2023-03-11T01:04:55.742Z,99527.88
2023-03-11T01:07:23.480Z,99537.19
2023-03-11T01:09:50.163Z,99536.31
2023-03-11T01:12:16.758Z,99539.66
2023-03-11T01:14:43.551Z,99539.63
2023-03-11T01:17:10.231Z,99540.50
2023-03-11T01:19:36.841Z,99530.25
2023-03-11T01:22:03.395Z,99531.13
2023-03-11T01:24:29.991Z,99534.47
2023-03-11T01:26:56.595Z,99534.47
2023-03-11T01:29:23.090Z,99536.16
2023-03-11T01:31:49.643Z,99540.44
2023-03-11T01:34:16.247Z,99539.56
2023-03-11T01:36:42.806Z,99533.63
2023-03-11T01:39:09.362Z,99526.00
2023-03-11T01:41:35.938Z,99522.56
2023-03-11T01:44:04.208Z,99526.78
2023-03-11T01:46:37.687Z,99522.56
2023-03-11T01:49:05.940Z,99531.03
2023-03-11T01:51:37.458Z,99534.38
2023-03-11T01:54:10.648Z,99525.00
2023-03-11T01:56:39.266Z,99524.09
2023-03-11T01:59:08.387Z,99525.72
2023-03-11T02:01:38.824Z,99522.25
2023-03-11T02:04:05.376Z,99515.41
2023-03-11T02:06:32.549Z,99525.50
2023-03-11T02:09:00.978Z,99516.94
2023-03-11T02:11:30.618Z,99509.22
2023-03-11T02:14:02.422Z,99500.63
2023-03-11T02:16:29.176Z,99499.63
2023-03-11T02:19:00.586Z,99502.09
2023-03-11T02:21:30.575Z,99499.44
2023-03-11T02:24:07.915Z,99490.88
2023-03-11T02:26:43.359Z,99504.34
2023-03-11T02:29:12.082Z,99500.00
2023-03-11T02:31:42.543Z,99496.50
2023-03-11T02:34:18.978Z,99487.94
2023-03-11T02:36:45.699Z,99487.81
2023-03-11T02:39:12.338Z,99489.41
2023-03-11T02:41:42.350Z,99493.50
2023-03-11T02:44:11.752Z,99490.00
2023-03-11T02:46:41.577Z,99494.03
2023-03-11T02:49:09.562Z,99491.38
2023-03-11T02:51:36.162Z,99487.84
2023-03-11T02:54:05.324Z,99481.78
2023-03-11T02:56:32.309Z,99479.13
2023-03-11T02:58:58.843Z,99479.94
2023-03-11T03:01:25.426Z,99478.22
2023-03-11T03:03:52.132Z,99474.88
2023-03-11T03:06:19.037Z,99475.69
2023-03-11T03:08:45.603Z,99476.47
2023-03-11T03:11:12.259Z,99477.28
2023-03-11T03:13:38.841Z,99477.22
2023-03-11T03:16:05.770Z,99485.66
2023-03-11T03:18:32.387Z,99478.81
2023-03-11T03:20:58.993Z,99475.31
2023-03-11T03:23:25.522Z,99475.19
2023-03-11T03:25:52.061Z,99473.47
2023-03-11T03:28:19.259Z,99471.75
2023-03-11T03:30:45.814Z,99474.28
2023-03-11T03:33:12.797Z,99479.50
2023-03-11T03:35:42.857Z,99476.06
2023-03-11T03:38:09.446Z,99488.91
2023-03-11T03:40:36.483Z,99492.41
2023-03-11T03:43:03.706Z,99494.13
2023-03-11T03:45:30.445Z,99499.31
2023-03-11T03:47:57.194Z,99492.66
2023-03-11T03:50:24.355Z,99502.94
2023-03-11T03:52:50.884Z,99492.00
2023-03-11T03:55:17.546Z,99492.97
2023-03-11T03:57:44.072Z,99491.44
2023-03-11T04:00:11.326Z,99493.22
2023-03-11T04:02:37.944Z,99494.94
2023-03-11T04:05:05.199Z,99500.16
2023-03-11T04:07:34.267Z,99494.25
2023-03-11T04:10:00.800Z,99494.31
2023-03-11T04:12:27.758Z,99493.56
2023-03-11T04:14:54.388Z,99506.38
2023-03-11T04:17:21.074Z,99503.94
2023-03-11T04:19:47.681Z,99500.59
2023-03-11T04:22:14.253Z,99504.06
2023-03-11T04:24:40.943Z,99502.44
2023-03-11T04:27:07.582Z,99500.00
2023-03-11T04:29:34.144Z,99498.44
2023-03-11T04:32:00.687Z,99506.16
2023-03-11T04:34:27.222Z,99505.34
2023-03-11T04:36:54.649Z,99499.53
2023-03-11T04:39:21.280Z,99502.13
2023-03-11T04:41:47.843Z,99505.59
2023-03-11T04:44:14.487Z,99508.19
2023-03-11T04:46:41.043Z,99503.22
2023-03-11T04:49:08.186Z,99499.84
2023-03-11T04:51:34.743Z,99518.59
2023-03-11T04:54:01.389Z,99517.78
2023-03-11T04:56:27.934Z,99524.63
2023-03-11T04:58:54.513Z,99522.91
2023-03-11T05:01:21.034Z,99523.75
2023-03-11T05:03:47.904Z,99528.84
2023-03-11T05:06:14.430Z,99528.84
2023-03-11T05:08:41.151Z,99535.69
2023-03-11T05:11:08.898Z,99531.38
2023-03-11T05:13:35.584Z,99536.47
2023-03-11T05:16:02.259Z,99534.75
2023-03-11T05:18:29.851Z,99539.81
2023-03-11T05:20:56.413Z,99542.38
2023-03-11T05:23:22.987Z,99539.00
2023-03-11T05:25:49.552Z,99548.44
2023-03-11T05:28:16.331Z,99545.91
2023-03-11T05:30:42.827Z,99544.22
2023-03-11T05:33:09.450Z,99536.59
2023-03-11T05:35:36.098Z,99539.19
2023-03-11T05:38:02.734Z,99536.69
2023-03-11T05:40:29.268Z,99530.78
2023-03-11T05:42:55.834Z,99542.72
2023-03-11T05:45:22.357Z,99551.25
2023-03-11T05:47:48.934Z,99547.88
2023-03-11T05:50:15.476Z,99544.56
2023-03-11T05:52:41.989Z,99536.13
2023-03-11T05:55:11.484Z,99534.47
2023-03-11T05:57:39.423Z,99545.53
2023-03-11T06:00:12.328Z,99549.78
2023-03-11T06:02:40.997Z,99557.47
2023-03-11T06:05:08.632Z,99567.69
2023-03-11T06:07:36.000Z,99577.94
2023-03-11T06:10:03.654Z,99573.66
2023-03-11T06:12:30.243Z,99572.84
2023-03-11T06:14:56.826Z,99583.91
2023-03-11T06:17:23.481Z,99594.97
2023-03-11T06:19:50.054Z,99574.63
2023-03-11T06:22:16.693Z,99589.13
2023-03-11T06:24:43.212Z,99595.09
2023-03-11T06:27:11.310Z,99588.34
2023-03-11T06:29:37.919Z,99589.19
2023-03-11T06:32:04.771Z,99598.56
2023-03-11T06:34:31.332Z,99604.50
2023-03-11T06:36:59.614Z,99601.13
2023-03-11T06:39:26.208Z,99606.22
2023-03-11T06:41:52.795Z,99606.34
2023-03-11T06:44:19.333Z,99609.81
2023-03-11T06:46:45.935Z,99596.28
2023-03-11T06:49:12.478Z,99586.97
2023-03-11T06:51:39.038Z,99580.25
2023-03-11T06:54:05.615Z,99580.38
2023-03-11T06:56:32.116Z,99579.59
2023-03-11T06:58:58.713Z,99575.44
2023-03-11T07:01:26.152Z,99574.75
2023-03-11T07:03:53.169Z,99584.16
2023-03-11T07:06:22.729Z,99583.38
2023-03-11T07:08:51.505Z,99587.72
2023-03-11T07:13:56.219Z,99590.44
2023-03-11T07:16:26.308Z,99584.56
2023-03-11T07:18:55.140Z,99594.09
2023-03-11T07:21:23.189Z,99597.66
2023-03-11T07:23:55.066Z,99596.09
2023-03-11T07:26:22.556Z,99596.25
2023-03-11T07:28:50.227Z,99586.25
2023-03-11T07:31:21.179Z,99584.75
2023-03-11T07:33:47.807Z,99586.53
2023-03-11T07:36:18.648Z,99578.13
2023-03-11T07:38:46.232Z,99577.19
2023-03-11T07:41:14.237Z,99590.03
2023-03-11T07:43:42.717Z,99591.78
2023-03-11T07:48:46.964Z,99581.00
2023-03-11T07:51:17.143Z,99586.31
2023-03-11T07:53:44.457Z,99583.88
2023-03-11T07:56:12.606Z,99590.06
2023-03-11T07:58:40.166Z,99580.91
2023-03-11T08:01:09.151Z,99587.94
2023-03-11T08:03:36.486Z,99595.06
2023-03-11T08:06:04.312Z,99602.25
2023-03-11T08:08:30.841Z,99600.78
2023-03-11T08:10:57.354Z,99608.75
2023-03-11T08:13:23.925Z,99612.56
2023-03-11T08:15:50.518Z,99625.00
2023-03-11T08:18:17.213Z,99623.94
2023-03-11T08:20:45.437Z,99620.63
2023-03-11T08:23:12.408Z,99616.00
2023-03-11T08:25:40.704Z,99604.28
2023-03-11T08:28:09.031Z,99585.00
2023-03-11T08:30:36.031Z,99595.00
2023-03-11T08:33:02.593Z,99592.53
2023-03-11T08:35:29.331Z,99590.56
2023-03-11T08:37:56.037Z,99579.13
2023-03-11T08:40:23.129Z,99586.72
2023-03-11T08:42:49.734Z,99586.94
2023-03-11T08:45:16.420Z,99591.47
2023-03-11T08:47:43.069Z,99588.06
2023-03-11T08:50:14.728Z,99590.41
2023-03-11T08:52:41.449Z,99593.44
2023-03-11T08:55:11.271Z,99595.03
2023-03-11T08:57:38.448Z,99591.44
2023-03-11T09:00:08.308Z,99597.28
2023-03-11T09:02:35.316Z,99598.25
2023-03-11T09:05:02.170Z,99594.19
2023-03-11T09:07:28.817Z,99596.97
2023-03-11T09:09:55.466Z,99609.22
2023-03-11T09:12:22.152Z,99602.63
2023-03-11T09:14:49.435Z,99601.84
2023-03-11T09:17:17.380Z,99598.53
2023-03-11T09:19:44.108Z,99599.47
2023-03-11T09:22:10.957Z,99593.63
2023-03-11T09:24:37.647Z,99594.53
2023-03-11T09:27:05.443Z,99590.28
2023-03-11T09:29:32.409Z,99592.00
2023-03-11T09:32:00.370Z,99595.66
2023-03-11T09:34:27.159Z,99595.16
2023-03-11T09:36:53.724Z,99600.69
2023-03-11T09:39:20.305Z,99583.75
2023-03-11T09:41:58.299Z,99594.06
2023-03-11T09:44:46.126Z,99592.47
2023-03-11T09:58:02.143Z,99580.03
2023-03-11T10:00:28.716Z,99576.59
2023-03-11T10:02:55.928Z,99579.16
2023-03-11T10:05:27.326Z,99579.19
2023-03-11T10:10:42.134Z,99577.22
2023-03-11T10:13:18.354Z,99567.41
2023-03-11T10:18:49.854Z,99571.41
2023-03-11T10:24:42.393Z,99564.31
2023-03-11T10:27:16.168Z,99566.38
2023-03-11T10:30:07.966Z,99574.84
2023-03-11T10:32:43.045Z,99569.78
2023-03-11T10:38:00.806Z,99569.84
2023-03-11T10:40:31.506Z,99575.09
2023-03-11T10:43:03.232Z,99571.44
2023-03-11T10:45:36.899Z,99567.69
2023-03-11T10:48:09.088Z,99569.25
2023-03-11T10:50:36.613Z,99561.16
2023-03-11T10:53:07.279Z,99559.22
2023-03-11T10:55:33.872Z,99552.19
2023-03-11T10:58:13.360Z,99546.69
2023-03-11T11:00:40.034Z,99554.06
2023-03-11T11:03:16.886Z,99563.16
2023-03-11T11:05:43.547Z,99565.84
2023-03-11T11:08:15.870Z,99561.75
2023-03-11T11:10:52.985Z,99578.28
2023-03-11T11:13:21.883Z,99577.47
2023-03-11T11:15:57.088Z,99561.94
2023-03-11T11:23:46.731Z,99559.69
2023-03-11T11:31:48.612Z,99545.94
2023-03-11T11:37:05.029Z,99549.69
2023-03-11T11:39:44.545Z,99560.97
2023-03-11T11:42:13.677Z,99555.00
2023-03-11T11:44:43.075Z,99554.09
2023-03-11T11:47:30.074Z,99564.47
2023-03-11T11:50:00.929Z,99558.50
2023-03-11T11:52:32.885Z,99549.91
2023-03-11T11:55:04.919Z,99551.63
2023-03-11T11:57:31.977Z,99549.00
2023-03-11T11:59:58.775Z,99557.63
2023-03-11T12:05:16.487Z,99550.69
2023-03-11T12:07:57.265Z,99540.31
2023-03-11T12:16:31.832Z,99548.16
2023-03-11T12:27:19.797Z,99516.31
2023-03-11T12:29:52.757Z,99513.72
2023-03-11T12:32:29.322Z,99521.47
2023-03-11T12:35:01.795Z,99513.72
2023-03-11T12:37:28.315Z,99511.13
2023-03-11T12:39:54.842Z,99510.28
2023-03-11T12:42:25.105Z,99513.75
2023-03-11T12:44:51.929Z,99512.91
2023-03-11T12:47:28.984Z,99513.81
2023-03-11T12:50:16.480Z,99508.66
2023-03-11T12:52:58.666Z,99500.94
2023-03-11T12:55:31.568Z,99500.09
2023-03-11T12:58:07.905Z,99499.19
2023-03-11T13:00:59.893Z,99494.88
2023-03-11T13:08:48.559Z,99494.84
2023-03-11T13:11:38.688Z,99486.28
2023-03-11T13:14:29.963Z,99487.16
2023-03-11T13:17:17.179Z,99470.81
2023-03-11T13:19:49.028Z,99469.97
2023-03-11T13:22:55.383Z,99470.84
2023-03-11T13:25:35.137Z,99476.88
2023-03-11T13:28:27.891Z,99474.28
2023-03-11T13:42:47.976Z,99445.03
2023-03-11T13:45:27.428Z,99443.31
2023-03-11T13:48:00.649Z,99438.16
2023-03-11T13:50:31.956Z,99439.91
2023-03-11T13:53:01.019Z,99439.03
2023-03-11T13:55:35.755Z,99445.03
2023-03-11T13:58:15.775Z,99427.88
2023-03-11T14:00:53.830Z,99423.59
2023-03-11T14:03:23.812Z,99419.31
2023-03-11T14:05:57.882Z,99406.44
2023-03-11T14:08:34.924Z,99404.75
2023-03-11T14:13:42.360Z,99400.44
2023-03-11T14:16:15.391Z,99403.88
2023-03-11T14:18:46.599Z,99397.88
2023-03-11T14:21:18.926Z,99397.88
2023-03-11T14:23:49.888Z,99393.56
2023-03-11T14:26:21.648Z,99391.84
2023-03-11T14:28:52.206Z,99397.03
2023-03-11T14:31:32.765Z,99390.16
2023-03-11T14:34:04.658Z,99391.84
2023-03-11T14:47:55.208Z,99385.81
2023-03-11T14:50:24.427Z,99391.81
2023-03-11T14:52:57.548Z,99377.22
2023-03-11T14:55:33.673Z,99378.09
2023-03-11T14:58:06.725Z,99386.69
2023-03-11T15:00:38.220Z,99381.56
2023-03-11T15:03:28.927Z,99381.56
2023-03-11T15:06:00.051Z,99374.69
2023-03-11T15:08:29.768Z,99373.84
2023-03-11T15:13:50.771Z,99372.97
2023-03-11T15:16:37.567Z,99380.69
2023-03-11T15:22:29.743Z,99378.09
2023-03-11T15:24:59.544Z,99372.09
2023-03-11T15:27:37.985Z,99360.94
2023-03-11T15:30:19.455Z,99360.91
2023-03-11T15:32:46.884Z,99364.34
2023-03-11T15:35:17.163Z,99373.78
2023-03-11T15:37:43.869Z,99371.22
2023-03-11T15:45:54.373Z,99358.34
2023-03-11T15:48:22.373Z,99354.06
2023-03-11T15:50:54.748Z,99349.75
2023-03-11T15:53:23.417Z,99342.88
2023-03-11T15:55:50.844Z,99340.31
2023-03-11T15:58:19.128Z,99335.16
2023-03-11T16:00:49.548Z,99336.84
2023-03-11T16:03:16.619Z,99328.25
2023-03-11T16:05:43.299Z,99331.69
2023-03-11T16:08:10.430Z,99340.25
2023-03-11T16:10:37.776Z,99348.84
2023-03-11T16:13:05.026Z,99347.16
2023-03-11T16:15:35.732Z,99354.00
2023-03-11T16:18:05.333Z,99359.13
2023-03-11T16:20:46.537Z,99362.50
2023-03-11T16:23:17.932Z,99360.78
2023-03-11T16:25:45.256Z,99358.16
2023-03-11T16:28:15.035Z,99349.59
2023-03-11T16:30:41.866Z,99358.13
2023-03-11T16:33:08.473Z,99350.25
2023-03-11T16:35:35.360Z,99345.13
2023-03-11T16:38:02.164Z,99345.94
2023-03-11T16:40:29.268Z,99342.56
2023-03-11T16:43:00.794Z,99342.50
2023-03-11T16:45:28.101Z,99335.63
2023-03-11T16:47:54.667Z,99342.50
2023-03-11T16:50:24.233Z,99329.66
2023-03-11T16:52:51.707Z,99327.03
2023-03-11T16:55:18.586Z,99333.03
2023-03-11T16:57:45.440Z,99336.38
2023-03-11T17:00:12.929Z,99318.41
2023-03-11T17:02:39.547Z,99312.38
2023-03-11T17:05:07.509Z,99315.72
2023-03-11T17:07:34.862Z,99329.44
2023-03-11T17:10:01.495Z,99329.41
2023-03-11T17:12:28.581Z,99329.44
2023-03-11T17:14:55.832Z,99324.38
2023-03-11T17:17:23.171Z,99320.91
2023-03-11T17:19:50.028Z,99330.38
2023-03-11T17:22:17.408Z,99326.03
2023-03-11T17:24:43.953Z,99332.81
2023-03-11T17:27:13.087Z,99327.72
2023-03-11T17:29:39.861Z,99332.84
2023-03-11T17:32:07.104Z,99334.44
2023-03-11T17:34:33.778Z,99334.38
2023-03-11T17:37:00.615Z,99333.56
2023-03-11T17:39:27.162Z,99325.78
2023-03-11T17:41:53.690Z,99321.47
2023-03-11T17:44:20.243Z,99323.13
2023-03-11T17:46:46.992Z,99320.56
2023-03-11T17:49:15.210Z,99321.44
2023-03-11T17:51:41.887Z,99316.19
2023-03-11T17:54:08.453Z,99324.84
2023-03-11T17:56:35.335Z,99326.41
2023-03-11T17:59:01.886Z,99328.94
2023-03-11T18:01:29.278Z,99325.50
2023-03-11T18:03:55.974Z,99322.81
2023-03-11T18:06:23.243Z,99319.38
2023-03-11T18:08:50.634Z,99311.56
2023-03-11T18:11:21.105Z,99309.81
2023-03-11T18:13:47.979Z,99323.38
2023-03-11T18:16:19.543Z,99321.63
2023-03-11T18:18:46.982Z,99318.09
2023-03-11T18:23:52.652Z,99323.25
2023-03-11T18:26:19.159Z,99316.41
2023-03-11T18:28:46.287Z,99306.09
2023-03-11T18:31:15.727Z,99304.34
2023-03-11T18:33:46.460Z,99306.94
2023-03-11T18:36:16.445Z,99297.47
2023-03-11T18:38:43.415Z,99297.50
2023-03-11T18:41:10.366Z,99300.81
2023-03-11T18:43:37.110Z,99294.88
2023-03-11T18:46:08.453Z,99293.16
2023-03-11T18:48:35.583Z,99296.53
2023-03-11T18:51:02.275Z,99302.53
2023-03-11T18:53:28.833Z,99304.25
2023-03-11T18:56:01.583Z,99302.53
2023-03-11T18:58:29.202Z,99300.81
2023-03-11T19:01:02.728Z,99292.16
2023-03-11T19:03:29.277Z,99298.09
2023-03-11T19:05:55.793Z,99305.72
2023-03-11T19:08:22.337Z,99298.84
2023-03-11T19:10:48.876Z,99297.94
2023-03-11T19:13:19.278Z,99296.25
2023-03-11T19:15:46.184Z,99293.44
2023-03-11T19:18:13.574Z,99295.09
2023-03-11T19:20:40.718Z,99284.09
2023-03-11T19:23:07.893Z,99289.09
2023-03-11T19:25:35.363Z,99278.88
2023-03-11T19:28:01.956Z,99279.78
2023-03-11T19:30:28.529Z,99280.50
2023-03-11T19:32:55.116Z,99268.44
2023-03-11T19:35:23.677Z,99270.88
2023-03-11T19:37:50.394Z,99273.50
2023-03-11T19:40:17.486Z,99279.53
2023-03-11T19:42:44.357Z,99284.53
2023-03-11T19:45:11.589Z,99274.91
2023-03-11T19:47:38.781Z,99261.41
2023-03-11T19:50:06.283Z,99233.28
2023-03-11T19:52:34.685Z,99233.97
2023-03-11T19:55:01.280Z,99233.81
2023-03-11T19:57:27.851Z,99221.84
2023-03-11T19:59:55.771Z,99228.53
2023-03-11T20:02:22.423Z,99237.91
2023-03-11T20:04:49.078Z,99227.50
2023-03-11T20:07:15.626Z,99234.41
2023-03-11T20:09:42.276Z,99231.81
2023-03-11T20:12:08.930Z,99236.91
2023-03-11T20:14:35.641Z,99234.28
2023-03-11T20:17:02.155Z,99225.78
2023-03-11T20:19:28.901Z,99218.94
2023-03-11T20:21:55.498Z,99213.91
2023-03-11T20:24:22.091Z,99204.38
2023-03-11T20:26:51.105Z,99212.00
2023-03-11T20:29:17.872Z,99213.78
2023-03-11T20:31:44.723Z,99214.47
2023-03-11T20:34:12.140Z,99215.44
2023-03-11T20:36:39.057Z,99220.53
2023-03-11T20:39:09.897Z,99219.72
2023-03-11T20:41:38.693Z,99219.72
2023-03-11T20:44:07.053Z,99226.63
2023-03-11T20:46:35.202Z,99215.53
2023-03-11T20:49:02.414Z,99214.69
2023-03-11T20:51:29.190Z,99213.03
2023-03-11T20:53:55.737Z,99209.56
2023-03-11T20:56:24.752Z,99193.25
2023-03-11T20:58:52.741Z,99192.38
2023-03-11T21:03:58.279Z,99192.44
2023-03-11T21:06:28.734Z,99191.56
2023-03-11T21:08:57.112Z,99170.13
2023-03-11T21:11:25.033Z,99181.22
2023-03-11T21:13:52.551Z,99180.47
2023-03-11T21:16:19.779Z,99170.16
2023-03-11T21:18:49.200Z,99175.41
2023-03-11T21:21:17.632Z,99171.16
2023-03-11T21:23:45.165Z,99169.41
2023-03-11T21:26:14.949Z,99147.16
2023-03-11T21:28:46.318Z,99162.47
2023-03-11T21:31:17.911Z,99167.75
2023-03-11T21:33:45.087Z,99162.69
2023-03-11T21:36:13.438Z,99155.81
2023-03-11T21:38:40.895Z,99157.56
2023-03-11T21:41:14.432Z,99158.44
2023-03-11T21:43:42.082Z,99147.41
2023-03-11T21:46:12.565Z,99149.13
2023-03-11T21:48:39.314Z,99142.16
2023-03-11T21:51:06.935Z,99138.81
2023-03-11T21:53:34.146Z,99131.19
2023-03-11T21:56:01.395Z,99129.44
2023-03-11T21:58:28.064Z,99120.84
2023-03-11T22:00:54.806Z,99130.22
2023-03-11T22:03:22.188Z,99130.25
2023-03-11T22:05:48.848Z,99133.56
2023-03-11T22:08:15.563Z,99125.06
2023-03-11T22:10:42.403Z,99122.66
2023-03-11T22:13:09.083Z,99121.72
2023-03-11T22:15:36.862Z,99110.72
2023-03-11T22:18:03.894Z,99112.41
2023-03-11T22:20:30.578Z,99112.31
2023-03-11T22:22:57.236Z,99111.53
2023-03-11T22:25:23.778Z,99109.00
2023-03-11T22:27:50.368Z,99100.59
2023-03-11T22:30:17.106Z,99102.28
2023-03-11T22:32:43.930Z,99096.38
2023-03-11T22:35:10.501Z,99092.94
2023-03-11T22:37:37.095Z,99074.16
2023-03-11T22:40:07.469Z,99068.25
2023-03-11T22:42:34.449Z,99052.91
2023-03-11T22:45:00.992Z,99061.41
2023-03-11T22:47:27.619Z,99046.94
2023-03-11T22:49:54.129Z,99050.34
2023-03-11T22:52:20.738Z,99048.66
2023-03-11T22:54:47.419Z,99048.72
2023-03-11T22:57:13.986Z,99052.22
2023-03-11T22:59:40.507Z,99044.56
2023-03-11T23:02:07.290Z,99042.88
2023-03-11T23:04:33.833Z,99042.94
2023-03-11T23:07:00.440Z,99042.13
2023-03-11T23:09:27.119Z,99042.13
2023-03-11T23:11:53.945Z,99042.13
2023-03-11T23:14:27.934Z,99037.09
2023-03-11T23:17:00.526Z,99037.09
2023-03-11T23:19:27.104Z,99026.84
2023-03-11T23:21:53.638Z,99030.31
2023-03-11T23:24:20.184Z,99030.34
2023-03-11T23:26:46.740Z,99036.34
2023-03-11T23:29:14.785Z,99032.94
2023-03-11T23:31:41.360Z,99033.88
2023-03-11T23:34:08.194Z,99028.78
2023-03-11T23:36:34.788Z,99038.22
2023-03-11T23:39:01.389Z,99033.16
2023-03-11T23:41:29.165Z,99036.56
2023-03-11T23:43:55.791Z,99037.44
2023-03-11T23:46:22.424Z,99028.94
2023-03-11T23:48:49.035Z,99026.44
2023-03-11T23:51:15.785Z,99026.47
2023-03-11T23:53:42.308Z,99017.97
2023-03-11T23:56:11.868Z,99019.72
2023-03-11T23:58:38.584Z,99017.19
